OIII/THR METAR and TAF weather

Enter ICAO airport designator
Station Type Date Time Source
OIII METAR 2019/04/25 18:00 UTC NOAA

OIII 251800Z 22004KT 9999 FEW035 BKN190 13/M05 Q1022 A3019 NOSIG


Station Type Date Time Source
OIII Decoded METAR 2019/04/25 18:00 UTC NOAA

Tehran-Mehrabad, Iran (OIII) 35-41N 051-21E 1191M
Apr 25, 2019 - 02:00 PM EDT / 2019.04.25 1800 UTC
Wind: from the SW (220 degrees) at 5 MPH (4 KT):0
Visibility: greater than 7 mile(s):0
Sky conditions: mostly cloudy
Temperature: 55 F (13 C)
Dew Point: 23 F (-5 C)
Relative Humidity: 28%
Pressure (altimeter): 30.19 in. Hg (1022 hPa)
ob: OIII 251800Z 22004KT 9999 FEW035 BKN190 13/M05 Q1022 A3019 NOSIG
cycle: 18

Station Type Date Time Source
OIII TAF 2019/04/25 18:39 UTC NOAA

TAF OIII 251730Z 2518/2624 33006KT 7000 FEW035
TEMPO 2608/2514 12010KT FEW035CB SCT040

Example: see airport list